Time;durP1;ratioP1;P1;durP2;ratioP2;P2;SDS_P1;SDS_P2;PMS_P1;PMS_P2;Temp;Humidity;BMP_temperature;BMP_pressure;BME280_temperature;BME280_humidity;BME280_pressure;Samples;Min_cycle;Max_cycle;Signal;HPM_P1;HPM_P2
2022/12/05 00:01:19;;;;;;;39.08;18.77;;;4.20;99.90;;;;;;5094599;27;20039;-46
2022/12/05 00:03:47;;;;;;;39.20;18.48;;;3.50;99.90;;;;;;5129076;27;20473;-47
2022/12/05 00:06:13;;;;;;;42.90;19.40;;;4.10;99.90;;;;;;5130061;27;20042;-49
2022/12/05 00:08:39;;;;;;;39.70;18.83;;;3.70;99.90;;;;;;5130319;27;20035;-46
2022/12/05 00:11:12;;;;;;;40.28;20.05;;;3.50;99.90;;;;;;5130134;28;20062;-46
2022/12/05 00:13:39;;;;;;;44.75;20.65;;;3.80;99.90;;;;;;5130113;28;20043;-47
2022/12/05 00:16:09;;;;;;;39.70;19.42;;;3.80;99.90;;;;;;5129671;28;20526;-48
2022/12/05 00:18:36;;;;;;;38.03;18.33;;;3.50;99.90;;;;;;5130185;28;20054;-46
2022/12/05 00:21:02;;;;;;;39.92;18.23;;;3.70;99.90;;;;;;5130500;28;20046;-48
2022/12/05 00:23:27;;;;;;;39.60;18.58;;;3.80;99.90;;;;;;5130062;28;20382;-46
2022/12/05 00:25:53;;;;;;;39.53;19.98;;;3.80;99.90;;;;;;5129837;28;20035;-48
2022/12/05 00:28:19;;;;;;;38.50;18.92;;;3.50;99.90;;;;;;5129735;28;20478;-49
2022/12/05 00:30:44;;;;;;;38.13;18.77;;;3.80;99.90;;;;;;5111525;28;20401;-48
2022/12/05 00:33:10;;;;;;;34.67;17.20;;;3.80;99.90;;;;;;5128128;28;20092;-47
2022/12/05 00:35:35;;;;;;;43.65;19.70;;;3.80;99.90;;;;;;5111368;28;20375;-46
2022/12/05 00:38:01;;;;;;;36.50;18.38;;;4.00;99.90;;;;;;5130321;28;20047;-50
2022/12/05 00:40:27;;;;;;;36.47;17.73;;;3.80;99.90;;;;;;5129495;28;20052;-46
2022/12/05 00:42:53;;;;;;;41.40;19.45;;;3.60;99.90;;;;;;5130018;28;20096;-47
2022/12/05 00:45:18;;;;;;;40.72;18.33;;;3.90;99.90;;;;;;5128559;28;20494;-48
2022/12/05 00:47:44;;;;;;;37.42;17.73;;;3.60;99.90;;;;;;5129961;28;20418;-46
2022/12/05 00:50:10;;;;;;;37.35;17.98;;;3.70;99.90;;;;;;5111580;28;20085;-49
2022/12/05 00:52:35;;;;;;;37.33;17.40;;;3.80;99.90;;;;;;5129756;28;20049;-47
2022/12/05 00:55:01;;;;;;;37.33;17.75;;;3.70;99.90;;;;;;5111407;28;20031;-47
2022/12/05 00:57:27;;;;;;;38.40;17.27;;;3.60;99.90;;;;;;5129365;28;20043;-46
2022/12/05 00:59:53;;;;;;;36.88;17.58;;;3.60;99.90;;;;;;5130201;27;20143;-48
2022/12/05 01:02:18;;;;;;;35.03;17.95;;;3.90;99.90;;;;;;5133682;27;20031;-49
2022/12/05 01:04:44;;;;;;;38.88;17.67;;;3.70;99.90;;;;;;5133495;27;20073;-47
2022/12/05 01:07:10;;;;;;;34.25;16.17;;;3.60;99.90;;;;;;5115065;27;20084;-47
2022/12/05 01:09:35;;;;;;;35.78;17.27;;;3.90;99.90;;;;;;5133593;27;20092;-48
2022/12/05 01:12:01;;;;;;;33.17;16.38;;;3.90;99.90;;;;;;5133540;27;20047;-46
2022/12/05 01:14:27;;;;;;;32.72;16.42;;;3.70;99.90;;;;;;5133293;27;20035;-46
2022/12/05 01:16:55;;;;;;;30.95;16.02;;;3.70;99.90;;;;;;5133161;27;20039;-47
2022/12/05 01:19:26;;;;;;;31.02;16.17;;;3.90;99.90;;;;;;5131279;27;20038;-46
2022/12/05 01:21:53;;;;;;;29.20;15.63;;;3.70;99.90;;;;;;5133077;27;20027;-46
2022/12/05 01:24:20;;;;;;;33.75;16.23;;;3.80;99.90;;;;;;5133283;27;20142;-46
2022/12/05 01:26:46;;;;;;;29.30;15.55;;;3.90;99.90;;;;;;5133119;27;20038;-48
2022/12/05 01:29:14;;;;;;;31.50;16.33;;;3.80;99.90;;;;;;5133103;27;21074;-48
2022/12/05 01:31:40;;;;;;;30.77;15.80;;;3.90;99.90;;;;;;5131926;27;20039;-48
2022/12/05 01:34:13;;;;;;;31.13;15.73;;;3.80;99.90;;;;;;5133031;27;20402;-49
2022/12/05 01:36:39;;;;;;;29.88;16.15;;;3.90;99.90;;;;;;5132946;27;20023;-49
2022/12/05 01:39:06;;;;;;;31.13;15.63;;;3.90;99.90;;;;;;5114674;27;20584;-47
2022/12/05 01:41:35;;;;;;;31.55;15.75;;;4.10;99.90;;;;;;5132621;27;20043;-50
2022/12/05 01:44:24;;;;;;;32.72;16.98;;;3.90;99.90;;;;;;5133037;27;20047;-47
2022/12/05 01:46:52;;;;;;;31.88;16.27;;;4.00;99.90;;;;;;5084816;27;20049;-49
2022/12/05 01:49:33;;;;;;;31.65;16.40;;;3.90;99.90;;;;;;5132628;27;20046;-51
2022/12/05 01:52:06;;;;;;;32.42;17.27;;;3.90;99.90;;;;;;5131584;27;20118;-47
2022/12/05 01:54:35;;;;;;;32.90;17.17;;;3.90;99.90;;;;;;5132776;27;20035;-47
2022/12/05 01:57:05;;;;;;;32.60;17.15;;;4.20;99.90;;;;;;5113641;27;20124;-50
2022/12/05 01:59:37;;;;;;;35.78;18.60;;;4.10;99.90;;;;;;5132297;27;20142;-51
2022/12/05 02:02:03;;;;;;;36.72;18.23;;;4.20;99.90;;;;;;5131823;27;20039;-49
2022/12/05 02:04:30;;;;;;;36.33;18.27;;;3.90;99.90;;;;;;5131544;27;20501;-49
2022/12/05 02:06:55;;;;;;;34.97;19.00;;;3.90;99.90;;;;;;5132464;27;20038;-48
2022/12/05 02:09:22;;;;;;;36.35;18.95;;;4.00;99.90;;;;;;5114219;27;20043;-47
2022/12/05 02:11:59;;;;;;;37.70;19.23;;;4.20;99.90;;;;;;5131239;27;20046;-49
2022/12/05 02:14:31;;;;;;;37.45;19.00;;;4.10;99.90;;;;;;5131462;27;20474;-49
2022/12/05 02:17:12;;;;;;;36.35;19.67;;;4.30;99.90;;;;;;5113659;27;20962;-49
2022/12/05 02:19:47;;;;;;;40.10;19.48;;;4.20;99.90;;;;;;5131524;27;20114;-50
2022/12/05 02:22:18;;;;;;;37.30;19.33;;;4.20;99.90;;;;;;5132120;27;20093;-48
2022/12/05 02:24:46;;;;;;;42.05;19.83;;;4.20;99.90;;;;;;5130847;27;20042;-46
2022/12/05 02:27:45;;;;;;;40.80;20.10;;;4.00;99.90;;;;;;5131447;27;20050;-48
2022/12/05 02:30:14;;;;;;;37.95;19.92;;;4.20;99.90;;;;;;5131018;27;20475;-47
2022/12/05 02:33:07;;;;;;;41.58;20.05;;;4.10;99.90;;;;;;5131400;27;20047;-46
2022/12/05 02:35:52;;;;;;;42.70;19.48;;;4.10;99.90;;;;;;5131648;27;20491;-48
2022/12/05 02:38:33;;;;;;;42.92;19.55;;;3.90;99.90;;;;;;5131920;27;20474;-48
2022/12/05 02:41:25;;;;;;;42.08;21.67;;;4.30;99.90;;;;;;5131518;27;20062;-47
2022/12/05 02:43:59;;;;;;;43.20;20.13;;;3.90;99.90;;;;;;5131493;27;20067;-48
2022/12/05 02:46:28;;;;;;;47.30;21.45;;;4.30;99.90;;;;;;5131253;27;20126;-51
2022/12/05 02:48:58;;;;;;;45.15;21.17;;;4.30;99.90;;;;;;5130341;27;20057;-48
2022/12/05 02:51:29;;;;;;;45.20;21.63;;;3.90;99.90;;;;;;5130703;27;20474;-48
2022/12/05 02:53:58;;;;;;;41.00;20.48;;;4.40;99.90;;;;;;5131362;27;20035;-50
2022/12/05 02:56:25;;;;;;;49.45;22.10;;;4.30;99.90;;;;;;5112344;27;20073;-49
2022/12/05 02:58:54;;;;;;;42.83;22.30;;;4.20;99.90;;;;;;5131228;27;20073;-48
2022/12/05 03:01:27;;;;;;;50.80;23.92;;;4.70;99.90;;;;;;5131361;27;20267;-49
2022/12/05 03:03:54;;;;;;;50.75;22.63;;;3.90;99.90;;;;;;5112520;27;20095;-50
2022/12/05 03:06:27;;;;;;;52.85;23.58;;;4.20;99.90;;;;;;5113035;27;20038;-47
2022/12/05 03:09:18;;;;;;;47.67;21.90;;;4.60;99.90;;;;;;5131292;27;20057;-48
2022/12/05 03:11:49;;;;;;;49.20;22.60;;;4.20;99.90;;;;;;5131098;27;20084;-47
2022/12/05 03:14:22;;;;;;;52.38;22.27;;;4.20;99.90;;;;;;5111159;27;20211;-49
2022/12/05 03:16:51;;;;;;;47.35;23.02;;;4.50;99.90;;;;;;5130377;27;20066;-47
2022/12/05 03:19:25;;;;;;;54.72;23.80;;;4.40;99.90;;;;;;5130960;27;20423;-47
2022/12/05 03:22:01;;;;;;;48.47;22.70;;;4.00;99.90;;;;;;5131051;27;20042;-51
2022/12/05 03:24:29;;;;;;;53.17;24.67;;;4.80;99.90;;;;;;5130562;27;20518;-47
2022/12/05 03:27:00;;;;;;;53.20;24.73;;;3.90;99.90;;;;;;5130316;27;20027;-45
2022/12/05 03:29:38;;;;;;;57.92;25.10;;;3.90;99.90;;;;;;5130506;27;20047;-49
2022/12/05 03:32:25;;;;;;;57.85;24.58;;;4.10;99.90;;;;;;5128687;27;20168;-51
2022/12/05 03:35:21;;;;;;;58.50;24.88;;;4.50;99.90;;;;;;5130296;27;20449;-50
2022/12/05 03:38:02;;;;;;;52.45;24.52;;;4.20;99.90;;;;;;5130177;27;20385;-49
2022/12/05 03:40:42;;;;;;;61.97;25.50;;;4.00;99.90;;;;;;5130143;27;20062;-46
2022/12/05 03:43:11;;;;;;;58.60;25.83;;;4.60;99.90;;;;;;5130437;27;20058;-49
2022/12/05 03:45:51;;;;;;;62.60;26.50;;;4.90;99.90;;;;;;5111414;27;20039;-46
2022/12/05 03:48:33;;;;;;;62.45;25.92;;;4.30;99.90;;;;;;5129048;27;20035;-47
2022/12/05 03:50:59;;;;;;;60.72;26.48;;;4.00;99.90;;;;;;5130185;27;20039;-46
2022/12/05 03:53:30;;;;;;;65.25;26.70;;;4.00;99.90;;;;;;5130306;27;20031;-46
2022/12/05 03:56:03;;;;;;;67.15;27.77;;;4.00;99.90;;;;;;5130105;27;20053;-47
2022/12/05 03:58:36;;;;;;;64.60;28.30;;;5.10;99.90;;;;;;5130102;27;20110;-48
2022/12/05 04:01:04;;;;;;;67.15;27.60;;;4.00;99.90;;;;;;5130064;27;20114;-49
2022/12/05 04:03:40;;;;;;;64.22;27.52;;;4.70;99.90;;;;;;5130418;27;20047;-49
2022/12/05 04:06:22;;;;;;;59.42;26.15;;;4.60;99.90;;;;;;5129138;27;20448;-47
2022/12/05 04:09:18;;;;;;;68.28;26.83;;;4.00;99.90;;;;;;5110582;28;20083;-50
2022/12/05 04:11:54;;;;;;;62.30;26.00;;;4.60;99.90;;;;;;5124890;28;20050;-46
2022/12/05 04:14:38;;;;;;;66.90;26.80;;;4.30;99.90;;;;;;5111375;28;20042;-48
2022/12/05 04:17:08;;;;;;;61.70;26.08;;;4.70;99.90;;;;;;5129393;28;20039;-50
2022/12/05 04:22:50;;;;;;;;;;;4.70;99.90;;;;;;5108145;28;20398;-48
2022/12/05 04:25:32;;;;;;;58.20;23.42;;;4.80;99.90;;;;;;5130155;28;20155;-47
2022/12/05 04:28:06;;;;;;;59.85;25.13;;;4.00;99.90;;;;;;5129203;28;20035;-48
2022/12/05 04:30:39;;;;;;;;;;;4.80;99.90;;;;;;5111871;28;20058;-49
2022/12/05 04:33:16;;;;;;;59.58;22.98;;;4.30;99.90;;;;;;5128649;28;19923;-50
2022/12/05 04:35:50;;;;;;;60.47;25.00;;;4.10;99.90;;;;;;5130645;27;20182;-49
2022/12/05 04:38:48;;;;;;;57.97;25.65;;;4.50;99.90;;;;;;5134253;27;20088;-49
2022/12/05 04:41:21;;;;;;;55.72;23.45;;;4.80;99.90;;;;;;5092453;27;20115;-48
2022/12/05 04:43:49;;;;;;;51.22;23.50;;;4.80;99.90;;;;;;5115304;27;20055;-47
2022/12/05 04:46:17;;;;;;;55.65;23.70;;;4.30;99.90;;;;;;5134160;27;20038;-49
2022/12/05 04:48:47;;;;;;;53.50;23.48;;;4.80;99.90;;;;;;5133942;27;20355;-49
2022/12/05 04:51:19;;;;;;;46.13;22.38;;;4.40;99.90;;;;;;5133838;27;20096;-48
2022/12/05 04:53:48;;;;;;;43.00;20.83;;;4.10;99.90;;;;;;5133649;27;20031;-48
2022/12/05 04:56:18;;;;;;;43.97;21.13;;;4.80;99.90;;;;;;5133847;27;20478;-48
2022/12/05 04:58:46;;;;;;;42.65;20.00;;;5.20;99.90;;;;;;5115460;27;20814;-51
2022/12/05 05:01:44;;;;;;;42.53;19.42;;;4.20;99.90;;;;;;5133979;27;20078;-46
2022/12/05 05:04:13;;;;;;;39.13;20.27;;;4.20;99.90;;;;;;5091024;27;20437;-47
2022/12/05 05:06:40;;;;;;;39.72;20.08;;;4.80;99.90;;;;;;5133590;27;20122;-48
2022/12/05 05:09:06;;;;;;;34.70;19.38;;;4.70;99.90;;;;;;5133356;27;20082;-48
2022/12/05 05:11:34;;;;;;;37.08;19.88;;;4.90;99.90;;;;;;5133428;27;20118;-49
2022/12/05 05:14:00;;;;;;;36.00;18.65;;;4.20;99.90;;;;;;5134209;27;20039;-49
2022/12/05 05:16:38;;;;;;;32.80;17.38;;;5.00;99.90;;;;;;5133772;27;20179;-48
2022/12/05 05:19:05;;;;;;;35.38;17.85;;;4.90;99.90;;;;;;5132044;27;20038;-46
2022/12/05 05:21:34;;;;;;;33.83;18.20;;;5.00;99.90;;;;;;5132884;27;20041;-48
2022/12/05 05:24:00;;;;;;;31.33;17.27;;;4.50;99.90;;;;;;5132927;27;20075;-46
2022/12/05 05:26:29;;;;;;;35.25;17.15;;;4.20;99.90;;;;;;5132801;27;20085;-48
2022/12/05 05:28:57;;;;;;;31.45;17.60;;;4.20;99.90;;;;;;5133553;27;20039;-47
2022/12/05 05:31:23;;;;;;;30.70;15.80;;;4.30;99.90;;;;;;5133766;27;20389;-46
2022/12/05 05:33:53;;;;;;;30.77;16.40;;;4.50;99.90;;;;;;5131276;27;20125;-47
2022/12/05 05:36:20;;;;;;;30.55;15.52;;;4.30;99.90;;;;;;5124553;27;20050;-47
2022/12/05 05:38:53;;;;;;;27.95;16.10;;;4.90;99.90;;;;;;5126220;27;20470;-50
2022/12/05 05:41:30;;;;;;;27.50;16.30;;;4.70;99.90;;;;;;5121057;27;20062;-47
2022/12/05 05:44:00;;;;;;;27.48;16.65;;;4.80;99.90;;;;;;5122971;27;20126;-50
2022/12/05 05:46:28;;;;;;;28.95;15.88;;;4.80;99.90;;;;;;5127941;27;20039;-47
2022/12/05 05:48:55;;;;;;;29.88;16.13;;;4.40;99.90;;;;;;5125723;27;20043;-47
2022/12/05 05:51:21;;;;;;;28.17;15.10;;;5.10;99.90;;;;;;5124585;27;20042;-46
2022/12/05 05:53:47;;;;;;;29.40;17.02;;;5.10;99.90;;;;;;5129940;27;20148;-46
2022/12/05 05:56:16;;;;;;;27.50;15.38;;;5.00;99.90;;;;;;5106997;27;20067;-48
2022/12/05 05:58:42;;;;;;;25.90;14.73;;;5.10;99.90;;;;;;5126442;27;20038;-47
2022/12/05 06:01:19;;;;;;;23.60;14.55;;;5.10;99.90;;;;;;5128262;27;20054;-49
2022/12/05 06:03:45;;;;;;;22.98;14.10;;;4.50;99.90;;;;;;5123582;27;20035;-49
2022/12/05 06:06:13;;;;;;;23.70;13.82;;;5.10;99.90;;;;;;5128324;27;20505;-50
2022/12/05 06:08:41;;;;;;;21.90;13.00;;;4.50;99.90;;;;;;5126113;27;20045;-47
2022/12/05 06:11:19;;;;;;;18.10;10.95;;;4.50;99.90;;;;;;5126872;27;20040;-50
2022/12/05 06:13:45;;;;;;;19.13;11.35;;;5.10;99.90;;;;;;5124895;27;20298;-51
2022/12/05 06:16:12;;;;;;;18.73;11.10;;;4.90;99.90;;;;;;5128351;27;20035;-50
2022/12/05 06:18:38;;;;;;;15.02;10.00;;;4.60;99.90;;;;;;5127169;27;20368;-50
2022/12/05 06:21:07;;;;;;;15.82;9.85;;;5.20;99.90;;;;;;5124321;27;20100;-50
2022/12/05 06:23:35;;;;;;;15.20;9.70;;;4.60;99.90;;;;;;5128239;27;20043;-47
2022/12/05 06:26:01;;;;;;;16.25;9.73;;;4.50;99.90;;;;;;5126494;27;20039;-49
2022/12/05 06:28:27;;;;;;;15.52;9.80;;;4.70;99.90;;;;;;5122754;27;20070;-48
2022/12/05 06:30:52;;;;;;;13.88;9.15;;;4.50;99.90;;;;;;5129424;27;20067;-49
2022/12/05 06:33:19;;;;;;;13.27;8.95;;;4.70;99.90;;;;;;5121998;27;20494;-47
2022/12/05 06:35:45;;;;;;;12.30;8.38;;;5.00;99.90;;;;;;5127505;27;20559;-48
2022/12/05 06:38:11;;;;;;;14.55;9.07;;;4.70;99.90;;;;;;5127238;27;20078;-48
2022/12/05 06:40:41;;;;;;;13.23;8.77;;;4.60;99.90;;;;;;5123580;27;20399;-47
2022/12/05 06:43:07;;;;;;;11.18;8.00;;;5.20;99.90;;;;;;5128230;27;20129;-46
2022/12/05 06:45:33;;;;;;;14.75;9.05;;;5.20;99.90;;;;;;5124619;27;20138;-48
2022/12/05 06:47:58;;;;;;;14.05;8.98;;;4.90;99.90;;;;;;5125684;27;20043;-46
2022/12/05 06:50:24;;;;;;;13.90;9.20;;;5.20;99.90;;;;;;5127289;27;20035;-47
2022/12/05 06:52:50;;;;;;;14.38;9.07;;;5.50;99.90;;;;;;5123023;27;20432;-48
2022/12/05 06:55:16;;;;;;;13.10;9.30;;;5.20;99.90;;;;;;5129509;27;20406;-48
2022/12/05 06:57:41;;;;;;;13.88;8.95;;;4.90;99.90;;;;;;5124084;27;20035;-48
2022/12/05 07:02:53;;;;;;;12.98;8.77;;;5.20;99.90;;;;;;5112680;27;20095;-47
2022/12/05 07:05:18;;;;;;;14.23;9.55;;;5.50;99.90;;;;;;5130986;27;20039;-48
2022/12/05 07:07:45;;;;;;;14.98;9.70;;;5.20;99.90;;;;;;5128914;27;20037;-51
2022/12/05 07:10:11;;;;;;;14.85;9.32;;;4.60;99.90;;;;;;5123886;27;20027;-50
2022/12/05 07:12:36;;;;;;;14.35;9.57;;;4.90;99.90;;;;;;5125603;27;20039;-49
2022/12/05 07:15:03;;;;;;;15.68;9.23;;;4.70;99.90;;;;;;5108427;27;20032;-48
2022/12/05 07:17:28;;;;;;;13.10;9.00;;;5.30;99.90;;;;;;5121850;27;20141;-50
2022/12/05 07:19:55;;;;;;;13.55;9.60;;;4.70;99.90;;;;;;5125979;27;20118;-50
2022/12/05 07:22:22;;;;;;;13.18;8.82;;;4.70;99.90;;;;;;5125786;27;20037;-50
2022/12/05 07:24:51;;;;;;;13.68;8.77;;;5.30;99.90;;;;;;5125549;27;20078;-49
2022/12/05 07:27:18;;;;;;;14.45;8.18;;;4.70;99.90;;;;;;5107840;27;20547;-48
2022/12/05 07:29:43;;;;;;;11.38;7.68;;;4.60;99.90;;;;;;5121491;27;20035;-48
2022/12/05 07:32:09;;;;;;;13.55;8.18;;;5.20;99.90;;;;;;5109456;27;20527;-48
2022/12/05 07:34:35;;;;;;;10.57;7.03;;;4.70;99.90;;;;;;5130558;27;20039;-51
2022/12/05 07:37:00;;;;;;;11.13;6.90;;;5.50;99.90;;;;;;5108741;27;20071;-48
2022/12/05 07:39:26;;;;;;;12.75;7.35;;;5.10;99.90;;;;;;5122197;27;20367;-50
2022/12/05 07:41:52;;;;;;;10.77;6.55;;;4.90;99.90;;;;;;5108687;27;20085;-47
2022/12/05 07:44:18;;;;;;;10.63;7.18;;;5.30;99.90;;;;;;5124193;27;20150;-48
2022/12/05 07:46:43;;;;;;;8.95;6.07;;;5.40;99.90;;;;;;5107531;27;20387;-49
2022/12/05 07:49:09;;;;;;;10.32;6.25;;;4.60;99.90;;;;;;5123686;27;20039;-47
2022/12/05 07:51:35;;;;;;;11.02;6.07;;;4.90;99.90;;;;;;5088663;27;20046;-46
2022/12/05 07:54:01;;;;;;;10.35;6.35;;;5.60;99.90;;;;;;5127359;27;20351;-50
2022/12/05 07:56:27;;;;;;;9.10;5.90;;;5.00;99.90;;;;;;5122034;27;20171;-52
2022/12/05 07:58:53;;;;;;;9.57;6.22;;;5.10;99.90;;;;;;5125036;27;20117;-48
2022/12/05 08:01:29;;;;;;;10.23;6.70;;;4.70;99.90;;;;;;5107044;28;20061;-49
2022/12/05 08:03:57;;;;;;;10.77;6.03;;;4.90;99.90;;;;;;5102890;27;20043;-51
2022/12/05 08:06:25;;;;;;;11.27;6.55;;;5.70;99.90;;;;;;5108631;28;20117;-48
2022/12/05 08:08:52;;;;;;;10.02;5.97;;;4.80;99.90;;;;;;5104390;27;20179;-50
2022/12/05 08:11:22;;;;;;;10.68;6.03;;;5.40;99.90;;;;;;5123440;28;20390;-50
2022/12/05 08:13:49;;;;;;;11.32;6.68;;;4.80;99.90;;;;;;5126341;28;20043;-50
2022/12/05 08:16:20;;;;;;;11.40;6.70;;;4.70;99.90;;;;;;5122400;28;20046;-49
2022/12/05 08:18:46;;;;;;;9.95;6.82;;;5.10;99.90;;;;;;5118776;28;20050;-51
2022/12/05 08:21:21;;;;;;;10.88;6.47;;;5.50;99.90;;;;;;5098624;28;20031;-51
2022/12/05 08:23:47;;;;;;;12.38;7.40;;;4.80;99.90;;;;;;5119696;28;20043;-48
2022/12/05 08:26:17;;;;;;;11.23;7.28;;;5.30;99.90;;;;;;5119607;28;20039;-47
2022/12/05 08:28:43;;;;;;;11.38;6.82;;;5.70;99.90;;;;;;5118461;28;20106;-48
2022/12/05 08:31:13;;;;;;;11.05;7.25;;;4.80;99.90;;;;;;5119115;28;20172;-47
2022/12/05 08:33:40;;;;;;;12.45;7.85;;;5.10;99.90;;;;;;5118853;28;20123;-51
2022/12/05 08:36:08;;;;;;;12.82;8.05;;;4.90;99.90;;;;;;5099837;28;20152;-47
2022/12/05 08:38:35;;;;;;;12.80;7.82;;;5.50;99.90;;;;;;5118788;28;20439;-50
2022/12/05 08:41:05;;;;;;;12.93;8.10;;;5.60;99.90;;;;;;5118698;28;20067;-49
2022/12/05 08:43:32;;;;;;;11.70;7.72;;;5.60;99.90;;;;;;5118331;28;20039;-50
2022/12/05 08:45:57;;;;;;;13.23;7.70;;;5.00;99.90;;;;;;5117804;28;20058;-48
2022/12/05 08:48:24;;;;;;;12.60;8.07;;;5.60;99.90;;;;;;5114986;28;20378;-52
2022/12/05 08:50:50;;;;;;;13.73;8.20;;;5.60;99.90;;;;;;5119534;28;20059;-48
2022/12/05 08:53:16;;;;;;;11.57;7.88;;;4.90;99.90;;;;;;5100668;28;20066;-49
2022/12/05 08:55:42;;;;;;;11.85;7.82;;;5.00;99.90;;;;;;5120501;28;20083;-47
2022/12/05 08:58:08;;;;;;;12.95;7.70;;;5.40;99.90;;;;;;5120373;28;20039;-47
2022/12/05 09:00:33;;;;;;;14.32;8.30;;;5.80;99.90;;;;;;5121050;28;20034;-49
2022/12/05 09:02:59;;;;;;;12.05;7.75;;;5.80;99.90;;;;;;5119485;28;20027;-50
2022/12/05 09:05:25;;;;;;;13.60;8.30;;;5.10;99.90;;;;;;5120545;28;20129;-51
2022/12/05 09:07:51;;;;;;;15.05;8.43;;;5.00;99.90;;;;;;5118974;28;20062;-49
2022/12/05 09:10:17;;;;;;;15.75;8.63;;;4.90;99.90;;;;;;5083666;28;20038;-47
2022/12/05 09:12:43;;;;;;;15.63;8.73;;;5.60;99.90;;;;;;5102037;28;20551;-47
2022/12/05 09:15:11;;;;;;;16.55;9.32;;;5.00;99.90;;;;;;5120939;28;20030;-46
2022/12/05 09:17:37;;;;;;;14.57;9.10;;;5.50;99.90;;;;;;5118546;28;20058;-47
2022/12/05 09:20:04;;;;;;;16.15;8.75;;;5.90;99.90;;;;;;5121884;28;20027;-47
2022/12/05 09:22:30;;;;;;;15.25;7.68;;;5.50;99.90;;;;;;5123088;27;20037;-48
2022/12/05 09:24:56;;;;;;;13.63;8.48;;;6.10;99.90;;;;;;5108995;27;20537;-46
2022/12/05 09:27:21;;;;;;;14.32;8.43;;;5.20;99.90;;;;;;5130884;27;20125;-50
2022/12/05 09:29:47;;;;;;;15.77;9.10;;;5.30;99.90;;;;;;5132623;27;20050;-48
2022/12/05 09:32:13;;;;;;;15.70;8.50;;;5.60;99.90;;;;;;5131868;27;20039;-50
2022/12/05 09:34:39;;;;;;;14.43;8.65;;;5.50;99.90;;;;;;5132181;27;20119;-50
2022/12/05 09:37:06;;;;;;;16.05;8.80;;;6.00;99.90;;;;;;5130062;27;20038;-48
2022/12/05 09:39:33;;;;;;;17.20;8.02;;;5.60;99.90;;;;;;5132605;27;20031;-52
2022/12/05 09:42:31;;;;;;;17.15;8.52;;;5.30;99.90;;;;;;5131911;27;20059;-47
2022/12/05 09:45:00;;;;;;;15.30;8.43;;;5.60;99.90;;;;;;5130337;27;20383;-47
2022/12/05 09:47:40;;;;;;;16.92;8.07;;;5.30;99.90;;;;;;5112965;27;20039;-51
2022/12/05 09:50:14;;;;;;;17.20;8.40;;;5.00;99.90;;;;;;5124640;27;20045;-47
2022/12/05 09:53:02;;;;;;;15.00;8.13;;;5.60;99.90;;;;;;5126918;27;20585;-49
2022/12/05 09:55:40;;;;;;;13.82;7.55;;;5.20;99.90;;;;;;5124132;27;20043;-48
2022/12/05 09:58:20;;;;;;;15.65;8.05;;;5.00;99.90;;;;;;5107916;27;20085;-48
2022/12/05 10:00:48;;;;;;;12.88;7.63;;;5.10;99.90;;;;;;5121457;27;20042;-50
2022/12/05 10:03:41;;;;;;;14.82;7.65;;;5.10;99.90;;;;;;5130442;27;20478;-48
2022/12/05 10:06:25;;;;;;;13.95;7.85;;;5.60;99.90;;;;;;5123487;27;20489;-47
2022/12/05 10:09:17;;;;;;;16.52;8.43;;;5.40;99.90;;;;;;5127966;27;20035;-48
2022/12/05 10:12:06;;;;;;;12.85;7.22;;;5.00;99.90;;;;;;5124252;27;20119;-48
2022/12/05 10:14:54;;;;;;;14.10;7.85;;;5.40;99.90;;;;;;5127615;27;20043;-48
2022/12/05 10:17:31;;;;;;;17.88;8.57;;;5.50;99.90;;;;;;5125935;27;20487;-46
2022/12/05 10:20:01;;;;;;;14.52;8.32;;;5.00;99.90;;;;;;5107907;27;20058;-51
2022/12/05 10:22:42;;;;;;;15.35;8.48;;;5.20;99.90;;;;;;5124632;27;20034;-46
2022/12/05 10:25:10;;;;;;;15.20;8.55;;;5.50;99.90;;;;;;5106774;27;20167;-49
2022/12/05 10:27:42;;;;;;;15.18;9.05;;;4.90;99.90;;;;;;5126482;27;20039;-48
2022/12/05 10:30:11;;;;;;;16.55;9.10;;;5.40;99.90;;;;;;5124019;27;20061;-49
2022/12/05 10:32:48;;;;;;;16.25;8.90;;;4.90;99.90;;;;;;5127038;27;20493;-50
2022/12/05 10:35:35;;;;;;;18.55;8.45;;;5.10;99.90;;;;;;5123377;27;20047;-48
2022/12/05 10:38:27;;;;;;;18.80;9.10;;;4.90;99.90;;;;;;5128073;27;20430;-50
2022/12/05 10:40:57;;;;;;;18.65;8.35;;;5.30;99.90;;;;;;5123530;27;20058;-47
2022/12/05 10:43:29;;;;;;;16.35;8.70;;;5.20;99.90;;;;;;5109316;27;20055;-46
2022/12/05 10:45:56;;;;;;;17.13;9.00;;;4.90;99.90;;;;;;5131171;27;20042;-49
2022/12/05 10:48:23;;;;;;;14.93;8.60;;;5.10;99.90;;;;;;5130929;27;20118;-47
2022/12/05 10:50:51;;;;;;;17.33;8.55;;;5.40;99.90;;;;;;5131125;27;20129;-49
2022/12/05 10:53:38;;;;;;;18.67;9.05;;;5.10;99.90;;;;;;5130004;27;20042;-46
2022/12/05 10:56:36;;;;;;;14.55;7.95;;;4.90;99.90;;;;;;5129145;27;20160;-49
2022/12/05 10:59:02;;;;;;;15.02;8.05;;;5.50;99.90;;;;;;5129495;27;20047;-47
2022/12/05 11:01:28;;;;;;;15.82;8.60;;;5.50;99.90;;;;;;5129048;27;20023;-47
2022/12/05 11:04:00;;;;;;;18.77;9.30;;;4.90;99.90;;;;;;5123787;27;20043;-46
2022/12/05 11:06:31;;;;;;;15.13;8.73;;;5.10;99.90;;;;;;5126846;27;20478;-47
2022/12/05 11:09:18;;;;;;;13.63;8.63;;;4.90;99.90;;;;;;5106541;27;20086;-50
2022/12/05 11:11:59;;;;;;;18.75;9.70;;;5.40;99.90;;;;;;5127769;27;20073;-45
2022/12/05 11:14:27;;;;;;;13.65;8.20;;;4.90;99.90;;;;;;5128540;27;20079;-49
2022/12/05 11:16:56;;;;;;;17.05;8.73;;;5.30;99.90;;;;;;5106677;27;20027;-45
2022/12/05 11:19:36;;;;;;;13.43;8.30;;;5.00;99.90;;;;;;5129623;27;20110;-45
2022/12/05 11:22:06;;;;;;;16.08;8.98;;;4.80;99.90;;;;;;5112601;27;20032;-47
2022/12/05 11:24:37;;;;;;;17.95;9.15;;;5.20;99.90;;;;;;5110332;27;20057;-48
2022/12/05 11:27:15;;;;;;;13.93;9.00;;;5.40;99.90;;;;;;5119040;27;20057;-47
2022/12/05 11:29:42;;;;;;;14.00;8.65;;;5.00;99.90;;;;;;5126031;27;20043;-47
2022/12/05 11:32:20;;;;;;;14.90;8.15;;;4.90;99.90;;;;;;5120351;27;20161;-46
2022/12/05 11:34:55;;;;;;;15.95;9.13;;;5.40;99.90;;;;;;5123954;27;20163;-49
2022/12/05 11:37:29;;;;;;;18.30;9.13;;;5.50;99.90;;;;;;5121660;27;20519;-48
2022/12/05 11:39:55;;;;;;;15.00;8.15;;;4.90;99.90;;;;;;5122287;27;20109;-48
2022/12/05 11:42:45;;;;;;;14.57;8.50;;;5.50;99.90;;;;;;5129007;27;20500;-50
2022/12/05 11:45:46;;;;;;;14.80;8.07;;;4.80;99.90;;;;;;5114982;27;20096;-47
2022/12/05 11:48:44;;;;;;;12.73;7.78;;;4.80;99.90;;;;;;5117095;27;20069;-49
2022/12/05 11:51:38;;;;;;;14.27;7.63;;;5.20;99.90;;;;;;5126377;27;20051;-46
2022/12/05 11:54:15;;;;;;;14.00;8.10;;;4.90;99.90;;;;;;5123387;27;20482;-46
2022/12/05 11:56:53;;;;;;;15.75;8.18;;;4.90;99.90;;;;;;5106327;27;20042;-47
2022/12/05 11:59:38;;;;;;;15.70;7.40;;;5.00;99.90;;;;;;5121748;27;20027;-46
2022/12/05 12:02:33;;;;;;;16.92;8.60;;;5.50;99.90;;;;;;5121977;27;20031;-50
2022/12/05 12:05:13;;;;;;;;;;;5.60;99.90;;;;;;5122426;27;20051;-46
2022/12/05 12:07:39;;;;;;;13.07;7.38;;;4.90;99.90;;;;;;5123924;27;19930;-49
2022/12/05 12:10:27;;;;;;;15.38;7.78;;;5.10;99.90;;;;;;5125145;27;20039;-49
2022/12/05 12:13:18;;;;;;;12.85;7.63;;;5.50;99.90;;;;;;5121701;27;20035;-47
2022/12/05 12:16:02;;;;;;;14.77;7.85;;;5.40;99.90;;;;;;5126177;28;20397;-46
2022/12/05 12:18:40;;;;;;;15.13;7.68;;;4.90;99.90;;;;;;5122743;28;20032;-47
2022/12/05 12:21:22;;;;;;;14.27;7.75;;;4.80;99.90;;;;;;5124528;28;20092;-48
2022/12/05 12:24:13;;;;;;;14.20;7.75;;;5.00;99.90;;;;;;5125022;28;20044;-50
2022/12/05 12:26:42;;;;;;;14.80;8.00;;;4.80;99.90;;;;;;5103302;28;20046;-48
2022/12/05 12:29:23;;;;;;;17.42;8.73;;;5.20;99.90;;;;;;5127174;28;20055;-50
2022/12/05 12:32:14;;;;;;;13.90;7.45;;;5.50;99.90;;;;;;5122836;28;20091;-49
2022/12/05 12:34:57;;;;;;;14.00;7.72;;;5.40;99.90;;;;;;5125060;28;20092;-48
2022/12/05 12:37:33;;;;;;;13.20;8.27;;;5.50;99.90;;;;;;5124674;28;20363;-47
2022/12/05 12:40:31;;;;;;;13.95;7.90;;;5.50;99.90;;;;;;5121410;28;20042;-45
2022/12/05 12:43:27;;;;;;;15.43;8.07;;;5.00;99.90;;;;;;5125569;28;20486;-47
2022/12/05 12:46:14;;;;;;;13.38;7.78;;;4.80;99.90;;;;;;5121033;28;20036;-49
2022/12/05 12:48:59;;;;;;;13.25;7.75;;;4.80;99.90;;;;;;5126133;28;20038;-51
2022/12/05 12:51:30;;;;;;;14.73;7.80;;;5.20;99.90;;;;;;5119305;28;20387;-49
2022/12/05 12:54:06;;;;;;;14.15;7.85;;;4.80;99.90;;;;;;5123777;28;20031;-46
2022/12/05 12:56:50;;;;;;;14.68;8.25;;;5.00;99.90;;;;;;5123293;27;20038;-49
2022/12/05 12:59:57;;;;;;;14.02;9.07;;;5.40;99.90;;;;;;5126335;27;20039;-47
2022/12/05 13:02:37;;;;;;;13.52;8.07;;;4.80;99.90;;;;;;5132245;27;20031;-46
2022/12/05 13:05:20;;;;;;;16.98;7.88;;;4.80;99.90;;;;;;5130674;27;20039;-48
2022/12/05 13:07:59;;;;;;;16.30;8.35;;;5.30;99.90;;;;;;5125346;27;20049;-46
2022/12/05 13:10:34;;;;;;;15.50;8.13;;;5.60;99.90;;;;;;5132364;27;20111;-47
2022/12/05 13:13:02;;;;;;;13.32;7.88;;;5.40;99.90;;;;;;5131937;27;20501;-46
2022/12/05 13:15:43;;;;;;;13.02;8.15;;;5.20;99.90;;;;;;5133204;27;20041;-46